Time;durP1;ratioP1;P1;durP2;ratioP2;P2;SDS_P1;SDS_P2;PMS_P1;PMS_P2;Temp;Humidity;BMP_temperature;BMP_pressure;BME280_temperature;BME280_humidity;BME280_pressure;Samples;Min_cycle;Max_cycle;Signal;HPM_P1;HPM_P2
2022/05/12 00:00:16;;;;;;;;;;;;;;;;;;;;;
2022/05/12 00:01:19;;;;;;;;;;;;;;;;;;2574864;23;19973;-87
2022/05/12 00:02:25;;;;;;;;;;;;;;;;;;2582936;23;20247;-88
2022/05/12 00:03:52;;;;;;;;;;;;;;;;;;2585979;23;19914;-88
2022/05/12 00:06:17;;;;;;;;;;;;;;;;;;2571100;23;19914;-88
2022/05/12 00:07:47;;;;;;;;;;;;;;;;;;;;;
2022/05/12 00:09:01;;;;;;;;;;;;;;;;;;2575048;23;19908;-88
2022/05/12 00:10:18;;;;;;;;;;;;;;;;;;;;;
2022/05/12 00:11:24;;;;;;;;;;;;;;;;;;2574973;23;19914;-88
2022/05/12 00:12:43;;;;;;;;;;;;;;;;;;2575258;23;19915;-88
2022/05/12 00:13:43;;;;;;;;;;;;;;;;;;2570072;23;20219;-88
2022/05/12 00:14:46;;;;;;;;;;;;;;;;;;2557886;23;20258;-87
2022/05/12 00:15:53;;;;;;;;;;;;;;;;;;2561976;23;19911;-89
2022/05/12 00:16:56;;;;;;;;;;;;;;;;;;2558954;23;19904;-88
2022/05/12 00:18:08;;;;;;;;;;;;;;;;;;2574585;23;20294;-88
2022/05/12 00:19:10;;;;;;;;;;;;;;;;;;2575142;23;19904;-88
2022/05/12 00:20:26;;;;;;;;;;;;;;;;;;2575006;23;19903;-88
2022/05/12 00:21:31;;;;;;;;;;;;;;;;;;2575012;23;19904;-88
2022/05/12 00:22:34;;;;;;;;;;;;;;;;;;2575086;23;19903;-88
2022/05/12 00:23:37;;;;;;;;;;;;;;;;;;2575206;23;19903;-87
2022/05/12 00:24:50;;;;;;;;;;;;;;;;;;;;;
2022/05/12 00:25:58;;;;;;;;;;;;;;;;;;2574520;23;19991;-88
2022/05/12 00:27:14;;;;;;;;;;;;;;;;;;2570267;23;19918;-88
2022/05/12 00:28:17;;;;;;;;;;;;;;;;;;2570907;23;19919;-88
2022/05/12 00:29:31;;;;;;;;;;;;;;;;;;2586790;23;19912;-88
2022/05/12 00:30:31;;;;;;;;;;;;;;;;;;2570396;23;20235;-88
2022/05/12 00:31:40;;;;;;;;;;;;;;;;;;2574432;23;19911;-88
2022/05/12 00:32:41;;;;;;;;;;;;;;;;;;2575433;23;19903;-87
2022/05/12 00:35:47;;;;;;;;;;;;;;;;;;2570488;23;19907;-87
2022/05/12 00:37:12;;;;;;;;;;;;;;;;;;;;;
2022/05/12 00:38:17;;;;;;;;;;;;;;;;;;2582464;23;19904;-86
2022/05/12 00:39:29;;;;;;;;;;;;;;;;;;2575154;23;19907;-87
2022/05/12 00:40:40;;;;;;;;;;;;;;;;;;2582721;23;19983;-88
2022/05/12 00:43:39;;;;;;;;;;;;;;;;;;2566171;23;20314;-88
2022/05/12 00:44:42;;;;;;;;;;;;;;;;;;2574967;23;20196;-87
2022/05/12 00:45:43;;;;;;;;;;;;;;;;;;2570103;23;20331;-87
2022/05/12 00:46:54;;;;;;;;;;;;;;;;;;;;;
2022/05/12 00:47:55;;;;;;;;;;;;;;;;;;2575023;23;20379;-87
2022/05/12 00:49:22;;;;;;;;;;;;;;;;;;2570301;23;19912;-87
2022/05/12 00:50:28;;;;;;;;;;;;;;;;;;2574669;23;19911;-86
2022/05/12 00:51:35;;;;;;;;;;;;;;;;;;2574833;23;19958;-87
2022/05/12 00:52:56;;;;;;;;;;;;;;;;;;;;;
2022/05/12 00:54:05;;;;;;;;;;;;;;;;;;2574661;23;19973;-87
2022/05/12 00:55:30;;;;;;;;;;;;;;;;;;2574839;23;19904;-87
2022/05/12 00:56:32;;;;;;;;;;;;;;;;;;2570219;23;19989;-86
2022/05/12 00:57:40;;;;;;;;;;;;;;;;;;2570325;23;19914;-86
2022/05/12 00:58:50;;;;;;;;;;;;;;;;;;;;;
2022/05/12 00:59:57;;;;;;;;;;;;;;;;;;2574549;23;20033;-86
2022/05/12 01:01:07;;;;;;;;;;;;;;;;;;2582385;22;19907;-86
2022/05/12 01:02:39;;;;;;;;;;;;;;;;;;2585298;23;19903;-86
2022/05/12 01:03:38;;;;;;;;;;;;;;;;;;2573530;23;19915;-85
2022/05/12 01:04:42;;;;;;;;;;;;;;;;;;2582106;23;20464;-86
2022/05/12 01:05:55;;;;;;;;;;;;;;;;;;2586927;23;20001;-86
2022/05/12 01:07:12;;;;;;;;;;;;;;;;;;2582452;23;20212;-86
2022/05/12 01:08:23;;;;;;;;;;;;;;;;;;;;;
2022/05/12 01:09:32;;;;;;;;;;;;;;;;;;2586967;23;20287;-86
2022/05/12 01:10:35;;;;;;;;;;;;;;;;;;2587666;23;19903;-86
2022/05/12 01:11:46;;;;;;;;;;;;;;;;;;;;;
2022/05/12 01:13:23;;;;;;;;;;;;;;;;;;;;;
2022/05/12 01:14:40;;;;;;;;;;;;;;;;;;2581093;23;19908;-86
2022/05/12 01:15:59;;;;;;;;;;;;;;;;;;2587496;23;19904;-86
2022/05/12 01:17:18;;;;;;;;;;;;;;;;;;2582661;23;20317;-86
2022/05/12 01:18:26;;;;;;;;;;;;;;;;;;2586948;23;19918;-86
2022/05/12 01:19:38;;;;;;;;;;;;;;;;;;;;;
2022/05/12 01:20:47;;;;;;;;;;;;;;;;;;2587320;23;20354;-86
2022/05/12 01:22:07;;;;;;;;;;;;;;;;;;2587452;23;19977;-86
2022/05/12 01:23:29;;;;;;;;;;;;;;;;;;2571414;23;19911;-85
2022/05/12 01:24:45;;;;;;;;;;;;;;;;;;2582476;23;19958;-87
2022/05/12 01:26:14;;;;;;;;;;;;;;;;;;2587039;23;20348;-87
2022/05/12 01:27:42;;;;;;;;;;;;;;;;;;2576328;23;20330;-86
2022/05/12 01:28:53;;;;;;;;;;;;;;;;;;2587421;23;19923;-85
2022/05/12 01:30:15;;;;;;;;;;;;;;;;;;;;;
2022/05/12 01:31:20;;;;;;;;;;;;;;;;;;2586608;22;19903;-85
2022/05/12 01:32:43;;;;;;;;;;;;;;;;;;2587385;23;19903;-86
2022/05/12 01:34:17;;;;;;;;;;;;;;;;;;2587481;23;20242;-86
2022/05/12 01:35:48;;;;;;;;;;;;;;;;;;2569782;23;19986;-86
2022/05/12 01:38:08;;;;;;;;;;;;;;;;;;2569288;23;19928;-86
2022/05/12 01:40:52;;;;;;;;;;;;;;;;;;2574495;23;20440;-86
2022/05/12 01:42:02;;;;;;;;;;;;;;;;;;2582170;23;19934;-85
2022/05/12 01:43:23;;;;;;;;;;;;;;;;;;2582494;23;19974;-85
2022/05/12 01:44:25;;;;;;;;;;;;;;;;;;2582151;23;19996;-85
2022/05/12 01:45:43;;;;;;;;;;;;;;;;;;2587588;23;20339;-85
2022/05/12 01:47:00;;;;;;;;;;;;;;;;;;2587149;23;20299;-85
2022/05/12 01:48:14;;;;;;;;;;;;;;;;;;;;;
2022/05/12 01:50:49;;;;;;;;;;;;;;;;;;2556852;23;19908;-86
2022/05/12 01:51:55;;;;;;;;;;;;;;;;;;2585465;23;19914;-86
2022/05/12 01:53:16;;;;;;;;;;;;;;;;;;2582702;23;20346;-86
2022/05/12 01:54:29;;;;;;;;;;;;;;;;;;;;;
2022/05/12 01:55:35;;;;;;;;;;;;;;;;;;2587620;23;19907;-86
2022/05/12 01:56:39;;;;;;;;;;;;;;;;;;2582798;23;19903;-86
2022/05/12 01:57:47;;;;;;;;;;;;;;;;;;2587054;23;19903;-86
2022/05/12 01:58:50;;;;;;;;;;;;;;;;;;2586741;23;19904;-86
2022/05/12 02:00:02;;;;;;;;;;;;;;;;;;2569874;23;19911;-85
2022/05/12 02:01:12;;;;;;;;;;;;;;;;;;2576434;23;19903;-86
2022/05/12 02:02:13;;;;;;;;;;;;;;;;;;2582621;23;19904;-86
2022/05/12 02:03:13;;;;;;;;;;;;;;;;;;2582869;23;19907;-86
2022/05/12 02:04:16;;;;;;;;;;;;;;;;;;2576584;23;19907;-86
2022/05/12 02:05:22;;;;;;;;;;;;;;;;;;2589371;23;19904;-87
2022/05/12 02:06:42;;;;;;;;;;;;;;;;;;2584157;23;20315;-87
2022/05/12 02:07:45;;;;;;;;;;;;;;;;;;2586849;23;19950;-86
2022/05/12 02:08:58;;;;;;;;;;;;;;;;;;2582454;23;20351;-87
2022/05/12 02:10:01;;;;;;;;;;;;;;;;;;2574033;23;19943;-86
2022/05/12 02:11:04;;;;;;;;;;;;;;;;;;2574514;23;19904;-86
2022/05/12 02:12:05;;;;;;;;;;;;;;;;;;2582349;23;19904;-86
2022/05/12 02:13:09;;;;;;;;;;;;;;;;;;2586572;23;19903;-86
2022/05/12 02:14:20;;;;;;;;;;;;;;;;;;;;;
2022/05/12 02:15:20;;;;;;;;;;;;;;;;;;2586801;23;20062;-86
2022/05/12 02:16:25;;;;;;;;;;;;;;;;;;2587134;23;19996;-88
2022/05/12 02:17:30;;;;;;;;;;;;;;;;;;2582421;23;19903;-87
2022/05/12 02:19:56;;;;;;;;;;;;;;;;;;2582784;23;19950;-86
2022/05/12 02:21:05;;;;;;;;;;;;;;;;;;2587316;22;19927;-86
2022/05/12 02:22:06;;;;;;;;;;;;;;;;;;2586885;23;20030;-86
2022/05/12 02:23:09;;;;;;;;;;;;;;;;;;2586789;23;19903;-86
2022/05/12 02:24:14;;;;;;;;;;;;;;;;;;2570127;23;19939;-87
2022/05/12 02:25:15;;;;;;;;;;;;;;;;;;2570568;23;19912;-86
2022/05/12 02:26:36;;;;;;;;;;;;;;;;;;2586760;23;20307;-87
2022/05/12 02:27:46;;;;;;;;;;;;;;;;;;2582584;23;19911;-87
2022/05/12 02:28:54;;;;;;;;;;;;;;;;;;2586865;23;19930;-86
2022/05/12 02:30:02;;;;;;;;;;;;;;;;;;2586965;23;20321;-86
2022/05/12 02:31:03;;;;;;;;;;;;;;;;;;2587223;22;19904;-86
2022/05/12 02:32:11;;;;;;;;;;;;;;;;;;2587349;23;19904;-86
2022/05/12 02:33:14;;;;;;;;;;;;;;;;;;2582487;23;19946;-86
2022/05/12 02:34:14;;;;;;;;;;;;;;;;;;2586827;23;19903;-85
2022/05/12 02:35:15;;;;;;;;;;;;;;;;;;2587493;23;19910;-86
2022/05/12 02:36:17;;;;;;;;;;;;;;;;;;2582455;23;19950;-86
2022/05/12 02:37:37;;;;;;;;;;;;;;;;;;2569740;23;19908;-87
2022/05/12 02:38:39;;;;;;;;;;;;;;;;;;2565768;23;19908;-87
2022/05/12 02:39:43;;;;;;;;;;;;;;;;;;2557635;23;19909;-87
2022/05/12 02:40:46;;;;;;;;;;;;;;;;;;2557947;23;19912;-87
2022/05/12 02:41:49;;;;;;;;;;;;;;;;;;2574361;23;19904;-88
2022/05/12 02:42:54;;;;;;;;;;;;;;;;;;2586819;23;19904;-88
2022/05/12 02:44:04;;;;;;;;;;;;;;;;;;2586563;23;20307;-88
2022/05/12 02:45:18;;;;;;;;;;;;;;;;;;;;;
2022/05/12 02:46:36;;;;;;;;;;;;;;;;;;2576605;23;19915;-88
2022/05/12 02:47:40;;;;;;;;;;;;;;;;;;2586534;23;19995;-88
2022/05/12 02:48:47;;;;;;;;;;;;;;;;;;2586860;23;20241;-87
2022/05/12 02:50:02;;;;;;;;;;;;;;;;;;2587371;23;20295;-87
2022/05/12 02:51:08;;;;;;;;;;;;;;;;;;2569458;23;19904;-86
2022/05/12 02:52:10;;;;;;;;;;;;;;;;;;2570918;23;19914;-86
2022/05/12 02:53:28;;;;;;;;;;;;;;;;;;;;;
2022/05/12 02:54:31;;;;;;;;;;;;;;;;;;2587356;23;19903;-87
2022/05/12 02:55:36;;;;;;;;;;;;;;;;;;2587053;23;19904;-86
2022/05/12 02:56:39;;;;;;;;;;;;;;;;;;2587295;23;19904;-86
2022/05/12 02:58:00;;;;;;;;;;;;;;;;;;2582570;23;19904;-87
2022/05/12 02:59:17;;;;;;;;;;;;;;;;;;2581963;23;19931;-87
2022/05/12 03:00:20;;;;;;;;;;;;;;;;;;2582494;23;19907;-86
2022/05/12 03:01:24;;;;;;;;;;;;;;;;;;2569677;23;20304;-86
2022/05/12 03:02:30;;;;;;;;;;;;;;;;;;2570478;23;19904;-86
2022/05/12 03:03:32;;;;;;;;;;;;;;;;;;2586480;23;20343;-87
2022/05/12 03:04:52;;;;;;;;;;;;;;;;;;;;;
2022/05/12 03:05:57;;;;;;;;;;;;;;;;;;2587226;23;19925;-87
2022/05/12 03:07:07;;;;;;;;;;;;;;;;;;2582384;23;19911;-86
2022/05/12 03:08:11;;;;;;;;;;;;;;;;;;2586771;23;20257;-86
2022/05/12 03:09:16;;;;;;;;;;;;;;;;;;2569953;23;20198;-88
2022/05/12 03:11:51;;;;;;;;;;;;;;;;;;2553811;23;19914;-87
2022/05/12 03:13:14;;;;;;;;;;;;;;;;;;2570125;23;20242;-87
2022/05/12 03:14:32;;;;;;;;;;;;;;;;;;2578850;23;19903;-87
2022/05/12 03:15:34;;;;;;;;;;;;;;;;;;2574071;23;20363;-88
2022/05/12 03:16:57;;;;;;;;;;;;;;;;;;;;;
2022/05/12 03:18:21;;;;;;;;;;;;;;;;;;2587124;23;19908;-87
2022/05/12 03:19:33;;;;;;;;;;;;;;;;;;;;;
2022/05/12 03:20:42;;;;;;;;;;;;;;;;;;2587250;23;19903;-86
2022/05/12 03:21:46;;;;;;;;;;;;;;;;;;2587402;22;19903;-87
2022/05/12 03:22:50;;;;;;;;;;;;;;;;;;2587178;23;19904;-86
2022/05/12 03:23:50;;;;;;;;;;;;;;;;;;2569776;23;19915;-87
2022/05/12 03:24:58;;;;;;;;;;;;;;;;;;2569877;23;19930;-85
2022/05/12 03:26:08;;;;;;;;;;;;;;;;;;2586862;23;19911;-86
2022/05/12 03:27:14;;;;;;;;;;;;;;;;;;2570700;23;19911;-87
2022/05/12 03:28:20;;;;;;;;;;;;;;;;;;2576052;23;19903;-87
2022/05/12 03:29:46;;;;;;;;;;;;;;;;;;2587550;23;20282;-86
2022/05/12 03:30:48;;;;;;;;;;;;;;;;;;2581500;23;20417;-85
2022/05/12 03:31:48;;;;;;;;;;;;;;;;;;2583191;23;19911;-87
2022/05/12 03:32:59;;;;;;;;;;;;;;;;;;2583044;23;19904;-85
2022/05/12 03:34:05;;;;;;;;;;;;;;;;;;2564383;23;19904;-86
2022/05/12 03:35:22;;;;;;;;;;;;;;;;;;2575389;23;19904;-86
2022/05/12 03:38:12;;;;;;;;;;;;;;;;;;2567598;23;19903;-87
2022/05/12 03:39:28;;;;;;;;;;;;;;;;;;2583328;23;20267;-87
2022/05/12 03:40:50;;;;;;;;;;;;;;;;;;2583473;23;20326;-87
2022/05/12 03:41:52;;;;;;;;;;;;;;;;;;2582694;23;20277;-87
2022/05/12 03:43:02;;;;;;;;;;;;;;;;;;2583025;23;20307;-86
2022/05/12 03:45:50;;;;;;;;;;;;;;;;;;2578541;23;20374;-87
2022/05/12 03:47:14;;;;;;;;;;;;;;;;;;2570711;23;19911;-86
2022/05/12 03:50:10;;;;;;;;;;;;;;;;;;;;;
2022/05/12 03:51:22;;;;;;;;;;;;;;;;;;2558308;23;19916;-87
2022/05/12 03:52:40;;;;;;;;;;;;;;;;;;2587850;23;19982;-87
2022/05/12 03:53:43;;;;;;;;;;;;;;;;;;2570620;23;19911;-86
2022/05/12 03:54:44;;;;;;;;;;;;;;;;;;2575119;23;19942;-87
2022/05/12 03:57:19;;;;;;;;;;;;;;;;;;2577408;23;19914;-86
2022/05/12 03:58:24;;;;;;;;;;;;;;;;;;2574760;23;20307;-87
2022/05/12 04:00:53;;;;;;;;;;;;;;;;;;2583677;22;19915;-87
2022/05/12 04:02:14;;;;;;;;;;;;;;;;;;2587917;23;19911;-87
2022/05/12 04:03:14;;;;;;;;;;;;;;;;;;2585023;23;20227;-88
2022/05/12 04:04:15;;;;;;;;;;;;;;;;;;2582988;23;19986;-87
2022/05/12 04:05:21;;;;;;;;;;;;;;;;;;2574891;23;19903;-88
2022/05/12 04:06:34;;;;;;;;;;;;;;;;;;;;;
2022/05/12 04:07:43;;;;;;;;;;;;;;;;;;2577331;23;20246;-87
2022/05/12 04:08:53;;;;;;;;;;;;;;;;;;2570317;23;19966;-88
2022/05/12 04:11:57;;;;;;;;;;;;;;;;;;2577197;23;19914;-89
2022/05/12 04:13:16;;;;;;;;;;;;;;;;;;2587340;23;19933;-89
2022/05/12 04:14:21;;;;;;;;;;;;;;;;;;2579656;23;19931;-89
2022/05/12 04:15:22;;;;;;;;;;;;;;;;;;2558912;23;19911;-89
2022/05/12 04:16:41;;;;;;;;;;;;;;;;;;2558159;23;20312;-89
2022/05/12 04:18:22;;;;;;;;;;;;;;;;;;2578570;23;19904;-89
2022/05/12 04:19:25;;;;;;;;;;;;;;;;;;2587914;23;19995;-88
2022/05/12 04:20:44;;;;;;;;;;;;;;;;;;2588844;23;19969;-87
2022/05/12 04:22:14;;;;;;;;;;;;;;;;;;2587624;23;19912;-87
2022/05/12 04:23:34;;;;;;;;;;;;;;;;;;2588861;23;19904;-88
2022/05/12 04:24:58;;;;;;;;;;;;;;;;;;2583806;23;19904;-87
2022/05/12 04:26:08;;;;;;;;;;;;;;;;;;;;;
2022/05/12 04:27:22;;;;;;;;;;;;;;;;;;2592610;23;19939;-87
2022/05/12 04:28:22;;;;;;;;;;;;;;;;;;2590246;23;19903;-87
2022/05/12 04:29:38;;;;;;;;;;;;;;;;;;2583478;23;19903;-88
2022/05/12 04:30:48;;;;;;;;;;;;;;;;;;2578007;23;19911;-88
2022/05/12 04:32:12;;;;;;;;;;;;;;;;;;2587767;23;19961;-88
2022/05/12 04:36:22;;;;;;;;;;;;;;;;;;2587899;23;20319;-88
2022/05/12 04:49:16;;;;;;;;;;;;;;;;;;2578728;22;19915;-87
2022/05/12 04:51:05;;;;;;;;;;;;;;;;;;;;;
2022/05/12 04:54:29;;;;;;;;;;;;;;;;;;;;;
2022/05/12 05:04:01;;;;;;;;;;;;;;;;;;;;;
2022/05/12 05:07:14;;;;;;;;;;;;;;;;;;;;;
2022/05/12 05:15:44;;;;;;;;;;;;;;;;;;2462967;23;20235;-90
2022/05/12 05:17:04;;;;;;;;;;;;;;;;;;2473468;24;20342;-92
2022/05/12 05:21:34;;;;;;;;;;;;;;;;;;2502184;23;19906;-90
2022/05/12 05:28:24;;;;;;;;;;;;;;;;;;;;;
2022/05/12 05:29:27;;;;;;;;;;;;;;;;;;2513509;23;19916;-89
2022/05/12 05:30:30;;;;;;;;;;;;;;;;;;2524450;23;19920;-89
2022/05/12 05:31:33;;;;;;;;;;;;;;;;;;2508348;23;20301;-91
2022/05/12 05:32:59;;;;;;;;;;;;;;;;;;2512841;23;19905;-91
2022/05/12 05:34:12;;;;;;;;;;;;;;;;;;;;;
2022/05/12 05:35:34;;;;;;;;;;;;;;;;;;2560740;23;20340;-93
2022/05/12 05:38:03;;;;;;;;;;;;;;;;;;2556078;23;19904;-92
2022/05/12 05:40:12;;;;;;;;;;;;;;;;;;2557972;23;20368;-91
2022/05/12 05:42:44;;;;;;;;;;;;;;;;;;;;;
2022/05/12 05:45:17;;;;;;;;;;;;;;;;;;2558271;23;19931;-89
2022/05/12 05:46:41;;;;;;;;;;;;;;;;;;2556815;23;19955;-89
2022/05/12 05:47:54;;;;;;;;;;;;;;;;;;2561316;23;19914;-89
2022/05/12 05:48:59;;;;;;;;;;;;;;;;;;2570519;23;20231;-91
2022/05/12 05:53:33;;;;;;;;;;;;;;;;;;2574690;23;20307;-92
2022/05/12 05:57:58;;;;;;;;;;;;;;;;;;2564623;23;20231;-92
2022/05/12 05:59:14;;;;;;;;;;;;;;;;;;2574895;23;19911;-94
2022/05/12 06:05:02;;;;;;;;;;;;;;;;;;2559475;23;20352;-89
2022/05/12 06:07:54;;;;;;;;;;;;;;;;;;2546082;23;19938;-90
2022/05/12 06:09:27;;;;;;;;;;;;;;;;;;;;;
2022/05/12 06:11:06;;;;;;;;;;;;;;;;;;;;;
2022/05/12 06:12:30;;;;;;;;;;;;;;;;;;2563543;23;19908;-94
2022/05/12 06:13:57;;;;;;;;;;;;;;;;;;2574498;23;19961;-90
2022/05/12 06:14:58;;;;;;;;;;;;;;;;;;2557110;23;19912;-88
2022/05/12 06:17:38;;;;;;;;;;;;;;;;;;2557597;23;19908;-90
2022/05/12 06:18:47;;;;;;;;;;;;;;;;;;2574758;23;19934;-90
2022/05/12 06:19:54;;;;;;;;;;;;;;;;;;2557670;23;19908;-88
2022/05/12 06:21:05;;;;;;;;;;;;;;;;;;2563270;23;19982;-89
2022/05/12 06:22:12;;;;;;;;;;;;;;;;;;2557620;23;20390;-89
2022/05/12 06:23:26;;;;;;;;;;;;;;;;;;2563172;23;19916;-88
2022/05/12 06:24:43;;;;;;;;;;;;;;;;;;2574930;23;19911;-92
2022/05/12 06:27:39;;;;;;;;;;;;;;;;;;2550908;23;19909;-88
2022/05/12 06:29:08;;;;;;;;;;;;;;;;;;2553139;23;19919;-88
2022/05/12 06:30:11;;;;;;;;;;;;;;;;;;2563076;23;19916;-91
2022/05/12 06:31:15;;;;;;;;;;;;;;;;;;2574735;23;20308;-87
2022/05/12 06:32:28;;;;;;;;;;;;;;;;;;2574844;23;19912;-89
2022/05/12 06:33:33;;;;;;;;;;;;;;;;;;2574985;23;19931;-89
2022/05/12 06:36:16;;;;;;;;;;;;;;;;;;2566189;23;19904;-89
2022/05/12 06:37:20;;;;;;;;;;;;;;;;;;2574837;23;19914;-89
2022/05/12 06:38:30;;;;;;;;;;;;;;;;;;;;;
2022/05/12 06:39:47;;;;;;;;;;;;;;;;;;2563579;23;19908;-88
2022/05/12 06:41:23;;;;;;;;;;;;;;;;;;2574485;23;19918;-88
2022/05/12 06:42:35;;;;;;;;;;;;;;;;;;2563996;23;19910;-89
2022/05/12 06:43:45;;;;;;;;;;;;;;;;;;2577728;23;19907;-87
2022/05/12 06:45:14;;;;;;;;;;;;;;;;;;2577445;23;19908;-89
2022/05/12 06:46:42;;;;;;;;;;;;;;;;;;2565194;23;20334;-90
2022/05/12 06:47:48;;;;;;;;;;;;;;;;;;2569344;23;20386;-93
2022/05/12 06:49:01;;;;;;;;;;;;;;;;;;;;;
2022/05/12 06:50:29;;;;;;;;;;;;;;;;;;2574373;23;20227;-88
2022/05/12 06:51:37;;;;;;;;;;;;;;;;;;2574395;23;19908;-87
2022/05/12 06:53:03;;;;;;;;;;;;;;;;;;2574505;23;20152;-86
2022/05/12 06:54:13;;;;;;;;;;;;;;;;;;2575999;23;20259;-94
2022/05/12 06:55:31;;;;;;;;;;;;;;;;;;2574609;23;19904;-91
2022/05/12 06:56:49;;;;;;;;;;;;;;;;;;2574506;23;19962;-91
2022/05/12 06:57:49;;;;;;;;;;;;;;;;;;2556672;23;19932;-88
2022/05/12 06:58:52;;;;;;;;;;;;;;;;;;2557791;23;19905;-88
2022/05/12 07:00:01;;;;;;;;;;;;;;;;;;2574382;23;19904;-89
2022/05/12 07:01:31;;;;;;;;;;;;;;;;;;;;;
2022/05/12 07:03:17;;;;;;;;;;;;;;;;;;;;;
2022/05/12 07:04:31;;;;;;;;;;;;;;;;;;2563298;23;19933;-91
2022/05/12 07:05:40;;;;;;;;;;;;;;;;;;2558295;23;19934;-90
2022/05/12 07:08:10;;;;;;;;;;;;;;;;;;2563866;23;19927;-93
2022/05/12 07:09:43;;;;;;;;;;;;;;;;;;;;;
2022/05/12 07:11:06;;;;;;;;;;;;;;;;;;2560262;23;19904;-89
2022/05/12 07:12:17;;;;;;;;;;;;;;;;;;;;;
2022/05/12 07:16:04;;;;;;;;;;;;;;;;;;2557627;23;19920;-89
2022/05/12 07:17:21;;;;;;;;;;;;;;;;;;;;;
2022/05/12 07:18:25;;;;;;;;;;;;;;;;;;2575172;23;19914;-89
2022/05/12 07:19:33;;;;;;;;;;;;;;;;;;2557930;23;20288;-92
2022/05/12 07:26:42;;;;;;;;;;;;;;;;;;2575263;23;19903;-88
2022/05/12 07:28:07;;;;;;;;;;;;;;;;;;;;;
2022/05/12 07:29:13;;;;;;;;;;;;;;;;;;2567462;23;19912;-90
2022/05/12 07:31:22;;;;;;;;;;;;;;;;;;2575100;23;19934;-92
2022/05/12 07:32:00;;;;;;;;;;;;;;;;;;2564894;23;19915;-90
2022/05/12 07:33:02;;;;;;;;;;;;;;;;;;2570403;23;19904;-85
2022/05/12 07:34:06;;;;;;;;;;;;;;;;;;2574782;23;19907;-91
2022/05/12 07:35:09;;;;;;;;;;;;;;;;;;2561276;23;20353;-88
2022/05/12 07:36:29;;;;;;;;;;;;;;;;;;2557632;23;19911;-90
2022/05/12 07:37:31;;;;;;;;;;;;;;;;;;2565866;23;19939;-87
2022/05/12 07:38:49;;;;;;;;;;;;;;;;;;2574829;23;19908;-90
2022/05/12 07:41:16;;;;;;;;;;;;;;;;;;2545957;23;19927;-86
2022/05/12 07:42:17;;;;;;;;;;;;;;;;;;2558160;23;19966;-90
2022/05/12 07:43:20;;;;;;;;;;;;;;;;;;2562537;23;19927;-90
2022/05/12 07:44:31;;;;;;;;;;;;;;;;;;;;;
2022/05/12 07:45:34;;;;;;;;;;;;;;;;;;2570190;23;20002;-88
2022/05/12 07:46:45;;;;;;;;;;;;;;;;;;2557612;23;20451;-91
2022/05/12 07:48:16;;;;;;;;;;;;;;;;;;;;;
2022/05/12 07:49:29;;;;;;;;;;;;;;;;;;;;;
2022/05/12 07:50:39;;;;;;;;;;;;;;;;;;;;;
2022/05/12 07:51:48;;;;;;;;;;;;;;;;;;2575084;23;19933;-87
2022/05/12 07:52:58;;;;;;;;;;;;;;;;;;2575361;23;19922;-88
2022/05/12 07:54:00;;;;;;;;;;;;;;;;;;2575351;23;19918;-89
2022/05/12 07:55:20;;;;;;;;;;;;;;;;;;;;;
2022/05/12 07:56:25;;;;;;;;;;;;;;;;;;2575155;23;19926;-86
2022/05/12 07:57:33;;;;;;;;;;;;;;;;;;2571164;23;19915;-89
2022/05/12 07:58:56;;;;;;;;;;;;;;;;;;2562028;23;19988;-91
2022/05/12 08:01:53;;;;;;;;;;;;;;;;;;2544905;23;19916;-93
2022/05/12 08:03:11;;;;;;;;;;;;;;;;;;2575052;23;20346;-87
2022/05/12 08:04:12;;;;;;;;;;;;;;;;;;2574974;23;19911;-87
2022/05/12 08:05:20;;;;;;;;;;;;;;;;;;2575328;23;19904;-91
2022/05/12 08:06:44;;;;;;;;;;;;;;;;;;2575491;23;19904;-87
2022/05/12 08:07:50;;;;;;;;;;;;;;;;;;2575284;23;20148;-90
2022/05/12 08:09:01;;;;;;;;;;;;;;;;;;2558074;23;19909;-90
2022/05/12 08:10:11;;;;;;;;;;;;;;;;;;2560116;23;19916;-89
2022/05/12 08:11:35;;;;;;;;;;;;;;;;;;2574735;23;19904;-94
2022/05/12 08:13:15;;;;;;;;;;;;;;;;;;;;;
2022/05/12 08:14:13;;;;;;;;;;;;;;;;;;2566136;23;20310;-90
2022/05/12 08:15:18;;;;;;;;;;;;;;;;;;2562266;23;20362;-94
2022/05/12 08:16:27;;;;;;;;;;;;;;;;;;2563220;23;19908;-91
2022/05/12 08:17:44;;;;;;;;;;;;;;;;;;2574692;23;19912;-93
2022/05/12 08:19:05;;;;;;;;;;;;;;;;;;;;;
2022/05/12 08:20:31;;;;;;;;;;;;;;;;;;2566701;23;19904;-93
2022/05/12 08:21:36;;;;;;;;;;;;;;;;;;2556404;23;19931;-88
2022/05/12 08:22:41;;;;;;;;;;;;;;;;;;2558099;23;19940;-90
2022/05/12 08:23:50;;;;;;;;;;;;;;;;;;2546667;23;19904;-90
2022/05/12 08:24:53;;;;;;;;;;;;;;;;;;2546355;23;20213;-95
2022/05/12 08:25:57;;;;;;;;;;;;;;;;;;2562710;23;19923;-91
2022/05/12 08:27:00;;;;;;;;;;;;;;;;;;2571315;23;19907;-91
2022/05/12 08:28:30;;;;;;;;;;;;;;;;;;;;;
2022/05/12 08:29:54;;;;;;;;;;;;;;;;;;2575188;23;19903;-90
2022/05/12 08:31:14;;;;;;;;;;;;;;;;;;2570131;23;19942;-91
2022/05/12 08:32:24;;;;;;;;;;;;;;;;;;;;;
2022/05/12 08:33:38;;;;;;;;;;;;;;;;;;;;;
2022/05/12 08:34:41;;;;;;;;;;;;;;;;;;2575301;23;19903;-90
2022/05/12 08:35:44;;;;;;;;;;;;;;;;;;2558003;23;20270;-90
2022/05/12 08:36:55;;;;;;;;;;;;;;;;;;;;;
2022/05/12 08:38:04;;;;;;;;;;;;;;;;;;2575118;23;19932;-88
2022/05/12 08:39:07;;;;;;;;;;;;;;;;;;2574735;23;19990;-87
2022/05/12 08:40:11;;;;;;;;;;;;;;;;;;2557717;23;20110;-87
2022/05/12 08:41:33;;;;;;;;;;;;;;;;;;2557989;23;19904;-88
2022/05/12 08:42:53;;;;;;;;;;;;;;;;;;2574323;23;19915;-90
2022/05/12 08:44:13;;;;;;;;;;;;;;;;;;2569731;23;19926;-88
2022/05/12 08:45:18;;;;;;;;;;;;;;;;;;2575185;23;19904;-88
2022/05/12 08:46:33;;;;;;;;;;;;;;;;;;;;;
2022/05/12 08:47:46;;;;;;;;;;;;;;;;;;2565136;23;19987;-87
2022/05/12 08:49:27;;;;;;;;;;;;;;;;;;2575103;23;20311;-89
2022/05/12 08:50:47;;;;;;;;;;;;;;;;;;;;;
2022/05/12 08:51:53;;;;;;;;;;;;;;;;;;2575000;23;19915;-88
2022/05/12 08:53:05;;;;;;;;;;;;;;;;;;;;;
2022/05/12 08:54:24;;;;;;;;;;;;;;;;;;2575005;23;19934;-91
2022/05/12 08:55:35;;;;;;;;;;;;;;;;;;2575256;23;19919;-89
2022/05/12 08:56:54;;;;;;;;;;;;;;;;;;;;;
2022/05/12 08:58:15;;;;;;;;;;;;;;;;;;2575118;23;19923;-87
2022/05/12 08:59:34;;;;;;;;;;;;;;;;;;2575219;23;19942;-87
2022/05/12 09:01:09;;;;;;;;;;;;;;;;;;2575365;23;19904;-90
2022/05/12 09:04:04;;;;;;;;;;;;;;;;;;2576314;23;19904;-90
2022/05/12 09:05:15;;;;;;;;;;;;;;;;;;2579126;23;19942;-89
2022/05/12 09:06:46;;;;;;;;;;;;;;;;;;2569939;23;19903;-91
2022/05/12 09:08:10;;;;;;;;;;;;;;;;;;2574703;23;19904;-86
2022/05/12 09:12:57;;;;;;;;;;;;;;;;;;2524537;23;20010;-89
2022/05/12 09:14:10;;;;;;;;;;;;;;;;;;;;;
2022/05/12 09:15:34;;;;;;;;;;;;;;;;;;2524768;23;20312;-89
2022/05/12 09:17:15;;;;;;;;;;;;;;;;;;2557626;23;19971;-89
2022/05/12 09:18:23;;;;;;;;;;;;;;;;;;2566334;23;19907;-88
2022/05/12 09:19:41;;;;;;;;;;;;;;;;;;2575135;23;19904;-91
2022/05/12 09:22:26;;;;;;;;;;;;;;;;;;2564879;23;19950;-90
2022/05/12 09:23:57;;;;;;;;;;;;;;;;;;2557533;23;20032;-92
2022/05/12 09:25:15;;;;;;;;;;;;;;;;;;2555115;23;19911;-93
2022/05/12 09:31:11;;;;;;;;;;;;;;;;;;;;;
2022/05/12 09:38:26;;;;;;;;;;;;;;;;;;;;;
2022/05/12 09:41:37;;;;;;;;;;;;;;;;;;2453762;24;19907;-90
2022/05/12 09:43:00;;;;;;;;;;;;;;;;;;2452736;24;20315;-91
2022/05/12 09:46:09;;;;;;;;;;;;;;;;;;2483107;23;19910;-86
2022/05/12 09:49:13;;;;;;;;;;;;;;;;;;2504541;23;19909;-92
2022/05/12 09:51:23;;;;;;;;;;;;;;;;;;;;;
2022/05/12 09:52:07;;;;;;;;;;;;;;;;;;;;;
2022/05/12 09:55:37;;;;;;;;;;;;;;;;;;2531938;23;20379;-89
2022/05/12 09:56:44;;;;;;;;;;;;;;;;;;2502561;23;19996;-89
2022/05/12 09:57:55;;;;;;;;;;;;;;;;;;2512499;23;19917;-88
2022/05/12 09:59:29;;;;;;;;;;;;;;;;;;2558144;23;19905;-88
2022/05/12 10:00:54;;;;;;;;;;;;;;;;;;;;;
2022/05/12 10:07:53;;;;;;;;;;;;;;;;;;2562180;23;20363;-88
2022/05/12 10:08:32;;;;;;;;;;;;;;;;;;2562084;23;19908;-90
2022/05/12 10:09:33;;;;;;;;;;;;;;;;;;2561919;23;19904;-89
2022/05/12 10:12:06;;;;;;;;;;;;;;;;;;2554762;23;19912;-93
2022/05/12 10:13:19;;;;;;;;;;;;;;;;;;2562311;23;19904;-91
2022/05/12 10:17:43;;;;;;;;;;;;;;;;;;;;;
2022/05/12 10:20:23;;;;;;;;;;;;;;;;;;;;;
2022/05/12 10:21:42;;;;;;;;;;;;;;;;;;;;;
2022/05/12 10:22:56;;;;;;;;;;;;;;;;;;2561748;23;19975;-92
2022/05/12 10:25:47;;;;;;;;;;;;;;;;;;;;;
2022/05/12 10:26:59;;;;;;;;;;;;;;;;;;2561758;23;19905;-90
2022/05/12 10:28:28;;;;;;;;;;;;;;;;;;2562106;23;19904;-87
2022/05/12 10:29:49;;;;;;;;;;;;;;;;;;2569660;23;19994;-87
2022/05/12 10:31:01;;;;;;;;;;;;;;;;;;2569797;23;19903;-90
2022/05/12 10:32:23;;;;;;;;;;;;;;;;;;2557885;23;19942;-94
2022/05/12 10:33:41;;;;;;;;;;;;;;;;;;2562052;23;19912;-93
2022/05/12 10:34:55;;;;;;;;;;;;;;;;;;2562322;23;19904;-94
2022/05/12 10:36:29;;;;;;;;;;;;;;;;;;;;;
2022/05/12 10:37:36;;;;;;;;;;;;;;;;;;2525877;23;19916;-93
2022/05/12 10:38:57;;;;;;;;;;;;;;;;;;2557097;23;20288;-91
2022/05/12 10:40:05;;;;;;;;;;;;;;;;;;2549025;23;19967;-85
2022/05/12 10:41:16;;;;;;;;;;;;;;;;;;2561329;23;19940;-88
2022/05/12 10:42:37;;;;;;;;;;;;;;;;;;2569573;23;19904;-87
2022/05/12 10:43:45;;;;;;;;;;;;;;;;;;2565160;23;20132;-83
2022/05/12 10:45:05;;;;;;;;;;;;;;;;;;2557026;23;20291;-86
2022/05/12 10:46:23;;;;;;;;;;;;;;;;;;2561371;23;19907;-88
2022/05/12 10:47:29;;;;;;;;;;;;;;;;;;2561629;23;19966;-87
2022/05/12 10:48:29;;;;;;;;;;;;;;;;;;2561669;23;19979;-83
2022/05/12 10:49:48;;;;;;;;;;;;;;;;;;2571158;23;20338;-88
2022/05/12 10:50:48;;;;;;;;;;;;;;;;;;2574107;23;19969;-83
2022/05/12 10:51:54;;;;;;;;;;;;;;;;;;2574443;23;19942;-88
2022/05/12 10:53:15;;;;;;;;;;;;;;;;;;2574529;23;20263;-93
2022/05/12 10:54:28;;;;;;;;;;;;;;;;;;2558627;23;19979;-91
2022/05/12 10:55:47;;;;;;;;;;;;;;;;;;2549160;23;20291;-94
2022/05/12 10:58:34;;;;;;;;;;;;;;;;;;2570711;23;20239;-89